createdAt,value
2018-06-25T00:00:55.194Z,78.30
2018-06-25T00:03:23.903Z,75.10
2018-06-25T00:05:52.735Z,77.20
2018-06-25T00:08:21.596Z,77.70
2018-06-25T00:10:51.369Z,76.60
2018-06-25T00:13:20.108Z,76.30
2018-06-25T00:15:48.831Z,76.40
2018-06-25T00:18:17.623Z,76.80
2018-06-25T00:20:46.349Z,76.40
2018-06-25T00:23:15.134Z,77.20
2018-06-25T00:25:44.035Z,77.60
2018-06-25T00:28:12.959Z,77.40
2018-06-25T00:30:41.673Z,77.70
2018-06-25T00:33:10.394Z,76.50
2018-06-25T00:35:39.067Z,76.60
2018-06-25T00:38:07.802Z,76.30
2018-06-25T00:40:37.123Z,76.70
2018-06-25T00:43:05.950Z,77.70
2018-06-25T00:45:35.008Z,77.40
2018-06-25T00:48:03.822Z,78.00
2018-06-25T00:50:32.722Z,77.50
2018-06-25T00:53:01.440Z,78.00
2018-06-25T00:55:30.189Z,78.90
2018-06-25T00:57:58.823Z,78.70
2018-06-25T01:00:27.544Z,80.10
2018-06-25T01:07:56.924Z,77.90
2018-06-25T01:10:26.239Z,78.30
2018-06-25T01:12:55.056Z,78.80
2018-06-25T01:15:23.802Z,78.80
2018-06-25T01:20:21.082Z,77.30
2018-06-25T01:22:49.942Z,76.60
2018-06-25T01:27:47.062Z,77.90
2018-06-25T01:30:15.707Z,78.70
2018-06-25T01:32:44.470Z,78.60
2018-06-25T01:35:13.222Z,77.90
2018-06-25T01:37:42.206Z,77.70
2018-06-25T01:40:11.056Z,77.70
2018-06-25T01:42:39.907Z,78.70
2018-06-25T01:45:08.691Z,78.10
2018-06-25T01:47:37.504Z,79.10
2018-06-25T01:52:34.727Z,77.20
2018-06-25T01:55:03.517Z,78.50
2018-06-25T01:57:32.344Z,78.70
2018-06-25T02:00:01.075Z,78.40
2018-06-25T02:02:30.049Z,77.90
2018-06-25T02:07:27.327Z,78.30
2018-06-25T02:09:56.337Z,78.60
2018-06-25T02:14:53.691Z,79.30
2018-06-25T02:17:22.726Z,80.30
2018-06-25T02:19:51.965Z,80.80
2018-06-25T02:22:20.946Z,80.80
2018-06-25T02:24:49.740Z,81.60
2018-06-25T02:27:18.571Z,81.90
2018-06-25T02:29:47.403Z,81.50
2018-06-25T02:32:16.172Z,80.60
2018-06-25T02:34:44.843Z,80.30
2018-06-25T02:37:13.664Z,81.20
2018-06-25T02:39:42.441Z,81.30
2018-06-25T02:42:11.333Z,81.90
2018-06-25T02:44:40.174Z,81.50
2018-06-25T02:47:08.970Z,83.10
2018-06-25T02:49:37.699Z,81.00
2018-06-25T02:52:06.555Z,82.00
2018-06-25T02:54:35.359Z,82.30
2018-06-25T02:57:04.027Z,82.30
2018-06-25T02:59:33.479Z,82.20
2018-06-25T03:02:02.345Z,83.80
2018-06-25T03:04:31.153Z,82.00
2018-06-25T03:06:59.895Z,82.00
2018-06-25T03:09:28.667Z,82.70
2018-06-25T03:11:57.443Z,82.70
2018-06-25T03:14:26.242Z,82.40
2018-06-25T03:16:55.947Z,85.10
2018-06-25T03:19:24.650Z,83.20
2018-06-25T03:21:53.380Z,85.40
2018-06-25T03:24:22.122Z,81.90
2018-06-25T03:26:50.915Z,83.20
2018-06-25T03:29:19.787Z,82.90
2018-06-25T03:31:48.564Z,83.40
2018-06-25T03:34:17.443Z,83.00
2018-06-25T03:36:46.385Z,83.70
2018-06-25T03:39:15.313Z,83.90
2018-06-25T03:41:43.971Z,84.30
2018-06-25T03:44:12.641Z,83.20
2018-06-25T03:46:41.296Z,84.60
2018-06-25T03:49:10.192Z,84.60
2018-06-25T03:51:38.852Z,84.60
2018-06-25T03:54:07.541Z,84.60
2018-06-25T03:56:36.295Z,83.90
2018-06-25T03:59:05.012Z,84.20
2018-06-25T04:01:34.228Z,84.40
2018-06-25T04:04:03.625Z,83.90
2018-06-25T04:06:32.231Z,84.60
2018-06-25T04:09:00.980Z,83.90
2018-06-25T04:11:29.816Z,84.90
2018-06-25T04:13:59.359Z,84.90
2018-06-25T04:16:28.163Z,85.00
2018-06-25T04:19:02.447Z,84.70
2018-06-25T04:21:31.170Z,84.30
2018-06-25T04:24:00.425Z,84.60
2018-06-25T04:26:29.230Z,84.40
2018-06-25T04:28:58.132Z,84.10
2018-06-25T04:31:27.289Z,83.80
2018-06-25T04:33:56.138Z,83.90
2018-06-25T04:36:24.823Z,84.50
2018-06-25T04:38:53.522Z,83.10
2018-06-25T04:41:22.308Z,83.10
2018-06-25T04:43:51.030Z,83.80
2018-06-25T04:46:19.715Z,84.70
2018-06-25T04:48:48.500Z,84.50
2018-06-25T04:51:17.343Z,84.70
2018-06-25T04:53:46.054Z,83.80
2018-06-25T04:56:14.722Z,83.40
2018-06-25T04:58:43.524Z,83.20
2018-06-25T05:01:12.432Z,82.90
2018-06-25T05:03:41.440Z,83.80
2018-06-25T05:06:10.306Z,83.70
2018-06-25T05:08:39.124Z,83.40
2018-06-25T05:11:07.935Z,83.30
2018-06-25T05:13:36.647Z,82.70
2018-06-25T05:22:49.242Z,82.80
2018-06-25T05:25:18.038Z,82.20
2018-06-25T05:27:47.448Z,80.30
2018-06-25T05:30:16.339Z,81.50
2018-06-25T05:32:46.108Z,80.40
2018-06-25T05:35:14.945Z,79.80
2018-06-25T05:37:44.206Z,80.50
2018-06-25T05:40:13.784Z,79.60
2018-06-25T05:42:42.775Z,79.30
2018-06-25T05:45:11.709Z,79.60
2018-06-25T05:47:40.721Z,79.60
2018-06-25T05:50:09.571Z,80.50
2018-06-25T05:52:39.339Z,79.60
2018-06-25T05:55:08.270Z,79.70
2018-06-25T05:57:37.360Z,79.70
2018-06-25T06:00:06.638Z,80.40
2018-06-25T06:02:35.444Z,80.00
2018-06-25T06:06:50.169Z,78.60
2018-06-25T06:09:19.055Z,78.90
2018-06-25T06:11:47.715Z,79.00
2018-06-25T06:14:16.522Z,78.50
2018-06-25T06:16:45.472Z,78.20
2018-06-25T06:19:14.411Z,77.90
2018-06-25T06:21:43.294Z,77.50
2018-06-25T06:24:12.038Z,77.50
2018-06-25T06:26:40.903Z,77.90
2018-06-25T06:29:09.783Z,77.70
2018-06-25T06:31:38.693Z,78.00
2018-06-25T06:34:07.598Z,77.50
2018-06-25T06:36:36.736Z,77.70
2018-06-25T06:39:10.860Z,76.70
2018-06-25T06:41:42.402Z,75.80
2018-06-25T06:44:11.514Z,75.10
2018-06-25T06:46:40.302Z,75.80
2018-06-25T06:49:09.136Z,75.70
2018-06-25T06:51:37.926Z,75.50
2018-06-25T06:54:06.778Z,76.30
2018-06-25T06:56:35.425Z,76.70
2018-06-25T06:59:04.391Z,76.40
2018-06-25T07:01:33.527Z,74.60
2018-06-25T07:04:02.312Z,75.50
2018-06-25T07:06:31.097Z,74.50
2018-06-25T07:08:59.848Z,75.50
2018-06-25T07:11:28.784Z,73.80
2018-06-25T07:13:57.475Z,75.00
2018-06-25T07:16:28.554Z,74.70
2018-06-25T07:18:58.225Z,74.20
2018-06-25T07:21:27.494Z,73.30
2018-06-25T07:23:56.760Z,72.80
2018-06-25T07:26:26.283Z,72.50
2018-06-25T07:28:56.059Z,72.70
2018-06-25T07:31:25.362Z,73.00
2018-06-25T07:33:54.294Z,71.30
2018-06-25T07:36:23.195Z,71.00
2018-06-25T07:38:52.036Z,71.30
2018-06-25T07:41:20.979Z,71.70
2018-06-25T07:43:49.803Z,71.90
2018-06-25T07:46:18.536Z,71.60
2018-06-25T07:48:47.346Z,71.70
2018-06-25T07:51:16.180Z,70.80
2018-06-25T07:53:45.135Z,70.60
2018-06-25T07:56:14.071Z,70.80
2018-06-25T07:58:43.405Z,71.70
2018-06-25T08:01:12.822Z,71.00
2018-06-25T08:03:41.720Z,69.60
2018-06-25T08:06:10.534Z,69.60
2018-06-25T08:08:39.486Z,69.50
2018-06-25T08:11:08.554Z,70.00
2018-06-25T08:13:37.447Z,68.00
2018-06-25T08:16:06.650Z,68.60
2018-06-25T08:18:35.522Z,69.20
2018-06-25T08:21:04.318Z,67.90
2018-06-25T08:23:34.649Z,67.30
2018-06-25T08:26:03.760Z,67.00
2018-06-25T08:28:32.592Z,65.90
2018-06-25T08:31:01.588Z,65.40
2018-06-25T08:33:30.523Z,65.20
2018-06-25T08:35:59.251Z,65.10
2018-06-25T08:38:28.484Z,65.00
2018-06-25T08:40:57.560Z,65.60
2018-06-25T08:43:26.291Z,65.40
2018-06-25T08:45:55.272Z,64.80
2018-06-25T08:48:24.415Z,64.60
2018-06-25T08:50:54.146Z,65.70
2018-06-25T08:53:22.924Z,61.70
2018-06-25T08:55:51.927Z,62.40
2018-06-25T08:58:21.024Z,62.60
2018-06-25T09:00:50.140Z,63.20
2018-06-25T09:03:19.241Z,63.10
2018-06-25T09:05:48.077Z,63.90
2018-06-25T09:08:18.402Z,64.20
2018-06-25T09:10:47.292Z,64.30
2018-06-25T09:13:17.250Z,62.40
2018-06-25T09:15:46.571Z,63.20
2018-06-25T09:18:15.555Z,63.30
2018-06-25T09:20:44.494Z,63.00
2018-06-25T09:23:13.371Z,62.80
2018-06-25T09:25:42.809Z,64.30
2018-06-25T09:28:11.787Z,65.50
2018-06-25T09:30:40.831Z,65.90
2018-06-25T09:33:09.654Z,66.10
2018-06-25T09:35:38.573Z,64.80
2018-06-25T09:38:07.573Z,65.40
2018-06-25T09:40:36.527Z,65.40
2018-06-25T09:43:05.289Z,66.10
2018-06-25T09:45:34.159Z,66.30
2018-06-25T09:48:03.063Z,65.70
2018-06-25T09:50:31.863Z,66.10
2018-06-25T09:53:00.709Z,66.00
2018-06-25T09:55:32.537Z,65.30
2018-06-25T09:58:11.397Z,64.20
2018-06-25T10:00:50.596Z,63.90
2018-06-25T10:03:19.390Z,63.70
2018-06-25T10:05:48.399Z,64.50
2018-06-25T10:08:17.296Z,64.80
2018-06-25T10:10:46.103Z,65.50
2018-06-25T10:13:15.153Z,65.90
2018-06-25T10:15:43.990Z,66.00
2018-06-25T10:18:12.819Z,65.90
2018-06-25T10:20:41.662Z,64.50
2018-06-25T10:23:10.419Z,63.50
2018-06-25T10:25:39.188Z,63.00
2018-06-25T10:28:08.670Z,62.90
2018-06-25T10:30:37.551Z,62.50
2018-06-25T10:33:06.462Z,62.20
2018-06-25T10:35:35.474Z,61.30
2018-06-25T10:38:04.438Z,61.30
2018-06-25T10:40:33.229Z,60.40
2018-06-25T10:43:01.988Z,58.80
2018-06-25T10:45:30.697Z,59.20
2018-06-25T10:47:59.480Z,57.80
2018-06-25T10:50:28.508Z,58.00
2018-06-25T10:52:57.330Z,57.40
2018-06-25T10:55:26.168Z,56.60
2018-06-25T10:57:55.195Z,56.60
2018-06-25T11:00:24.566Z,57.50
2018-06-25T11:02:53.947Z,57.90
2018-06-25T11:05:27.248Z,57.90
2018-06-25T11:07:56.668Z,60.00
2018-06-25T11:10:26.483Z,60.60
2018-06-25T11:12:55.393Z,60.80
2018-06-25T11:15:24.095Z,60.10
2018-06-25T11:17:52.792Z,59.90
2018-06-25T11:20:21.847Z,60.60
2018-06-25T11:22:51.204Z,60.50
2018-06-25T11:25:20.203Z,60.40
2018-06-25T11:27:49.082Z,59.40
2018-06-25T11:30:17.932Z,59.90
2018-06-25T11:32:46.725Z,59.90
2018-06-25T11:35:15.662Z,58.20
2018-06-25T11:37:44.388Z,58.50
2018-06-25T11:40:13.166Z,58.40
2018-06-25T11:42:42.031Z,58.70
2018-06-25T11:45:10.881Z,57.80
2018-06-25T11:47:39.713Z,58.80
2018-06-25T11:50:08.471Z,58.70
2018-06-25T11:52:37.208Z,59.40
2018-06-25T11:55:06.090Z,59.20
2018-06-25T11:57:34.888Z,59.10
2018-06-25T12:00:03.955Z,58.10
2018-06-25T12:02:32.886Z,59.30
2018-06-25T12:05:01.847Z,59.40
2018-06-25T12:07:30.787Z,59.20
2018-06-25T12:09:59.694Z,58.90
2018-06-25T12:12:29.089Z,58.90
2018-06-25T12:14:57.930Z,58.90
2018-06-25T12:17:26.872Z,58.60
2018-06-25T12:19:55.876Z,58.10
2018-06-25T12:22:25.289Z,58.50
2018-06-25T12:24:54.891Z,58.40
2018-06-25T12:27:24.639Z,58.30
2018-06-25T12:29:53.714Z,57.50
2018-06-25T12:32:22.656Z,56.90
2018-06-25T12:34:51.672Z,56.10
2018-06-25T12:37:20.572Z,55.20
2018-06-25T12:39:49.459Z,55.30
2018-06-25T12:42:18.109Z,55.80
2018-06-25T12:44:46.927Z,54.80
2018-06-25T12:47:15.763Z,55.10
2018-06-25T12:49:44.611Z,55.20
2018-06-25T12:52:13.498Z,54.70
2018-06-25T12:54:42.484Z,54.00
2018-06-25T12:57:11.365Z,53.60
2018-06-25T12:59:40.257Z,52.20
2018-06-25T13:02:09.083Z,51.70
2018-06-25T13:04:52.998Z,50.00
2018-06-25T13:07:22.018Z,49.10
2018-06-25T13:09:50.846Z,48.30
2018-06-25T13:12:19.680Z,46.80
2018-06-25T13:14:48.499Z,45.40
2018-06-25T13:17:17.247Z,44.10
2018-06-25T13:19:47.643Z,44.40
2018-06-25T13:22:20.463Z,45.80
2018-06-25T13:24:50.887Z,47.20
2018-06-25T13:27:19.688Z,48.60
2018-06-25T13:29:49.208Z,48.20
2018-06-25T13:32:17.906Z,48.40
2018-06-25T13:34:46.796Z,47.70
2018-06-25T13:37:15.770Z,48.10
2018-06-25T13:39:44.887Z,48.40
2018-06-25T13:42:13.709Z,48.80
2018-06-25T13:44:44.984Z,49.20
2018-06-25T13:47:13.741Z,49.40
2018-06-25T13:49:42.531Z,50.80
2018-06-25T13:52:12.072Z,50.60
2018-06-25T13:54:41.650Z,50.50
2018-06-25T13:57:10.605Z,50.40
2018-06-25T13:59:39.576Z,51.60
2018-06-25T14:02:08.571Z,51.50
2018-06-25T14:04:37.673Z,51.90
2018-06-25T14:07:06.862Z,52.00
2018-06-25T14:09:38.285Z,52.60
2018-06-25T14:12:20.104Z,52.90
2018-06-25T14:14:56.108Z,53.10
2018-06-25T14:17:41.158Z,53.40
2018-06-25T14:20:14.433Z,53.90
2018-06-25T14:22:43.390Z,54.50
2018-06-25T14:25:12.465Z,54.70
2018-06-25T14:27:46.316Z,54.80
2018-06-25T14:30:20.335Z,55.00
2018-06-25T14:32:51.076Z,55.00
2018-06-25T14:35:19.774Z,55.10
2018-06-25T14:37:48.643Z,55.50
2018-06-25T14:40:19.198Z,55.80
2018-06-25T14:42:49.595Z,55.70
2018-06-25T14:45:21.796Z,56.30
2018-06-25T14:47:51.676Z,57.00
2018-06-25T14:50:23.975Z,56.20
2018-06-25T14:52:57.393Z,57.10
2018-06-25T14:55:27.820Z,57.40
2018-06-25T14:58:04.741Z,56.70
2018-06-25T15:00:38.248Z,56.20
2018-06-25T15:03:11.153Z,56.70
2018-06-25T15:08:21.031Z,57.40
2018-06-25T15:10:51.068Z,56.70
2018-06-25T15:13:20.452Z,56.00
2018-06-25T15:15:51.532Z,55.50
2018-06-25T15:18:20.844Z,55.20
2018-06-25T15:20:50.056Z,55.10
2018-06-25T15:23:19.052Z,55.50
2018-06-25T15:25:47.880Z,55.70
2018-06-25T15:28:16.634Z,55.40
2018-06-25T15:30:45.521Z,54.20
2018-06-25T15:33:17.845Z,54.20
2018-06-25T15:35:46.690Z,54.70
2018-06-25T15:38:15.864Z,54.10
2018-06-25T15:40:44.719Z,53.30
2018-06-25T15:43:13.467Z,53.90
2018-06-25T15:45:42.298Z,53.10
2018-06-25T15:48:11.748Z,54.00
2018-06-25T15:50:40.627Z,53.30
2018-06-25T15:53:16.954Z,55.10
2018-06-25T15:55:54.499Z,55.10
2018-06-25T15:58:23.603Z,55.60
2018-06-25T16:00:52.451Z,55.30
2018-06-25T16:03:21.242Z,55.60
2018-06-25T16:05:49.936Z,54.70
2018-06-25T16:08:18.679Z,54.80
2018-06-25T16:10:47.751Z,54.90
2018-06-25T16:13:16.494Z,54.90
2018-06-25T16:15:51.238Z,55.30
2018-06-25T16:18:26.370Z,55.70
2018-06-25T16:21:00.627Z,56.00
2018-06-25T16:23:29.473Z,55.50
2018-06-25T16:25:58.239Z,55.70
2018-06-25T16:28:26.991Z,55.80
2018-06-25T16:30:56.159Z,55.70
2018-06-25T16:33:24.847Z,55.50
2018-06-25T16:35:53.837Z,54.80
2018-06-25T16:38:22.710Z,55.00
2018-06-25T16:40:52.021Z,55.10
2018-06-25T16:43:20.818Z,55.40
2018-06-25T16:45:50.133Z,55.40
2018-06-25T16:48:18.848Z,55.80
2018-06-25T16:50:47.555Z,55.80
2018-06-25T16:53:16.424Z,56.10
2018-06-25T16:55:45.103Z,56.10
2018-06-25T16:58:14.674Z,55.00
2018-06-25T17:03:12.696Z,55.30
2018-06-25T17:05:41.455Z,55.00
2018-06-25T17:08:10.114Z,55.20
2018-06-25T17:10:39.160Z,55.50
2018-06-25T17:13:08.591Z,56.00
2018-06-25T17:15:37.416Z,54.40
2018-06-25T17:18:06.391Z,56.10
2018-06-25T17:20:35.246Z,56.10
2018-06-25T17:23:04.178Z,57.00
2018-06-25T17:25:33.539Z,57.70
2018-06-25T17:28:02.589Z,56.40
2018-06-25T17:30:31.541Z,57.70
2018-06-25T17:33:00.521Z,57.70
2018-06-25T17:35:29.320Z,57.70
2018-06-25T17:37:58.169Z,56.80
2018-06-25T17:40:27.059Z,58.40
2018-06-25T17:42:55.933Z,58.40
2018-06-25T17:45:24.761Z,60.70
2018-06-25T17:47:53.827Z,59.80
2018-06-25T17:50:22.773Z,61.80
2018-06-25T17:52:51.757Z,60.80
2018-06-25T17:55:20.547Z,61.20
2018-06-25T17:57:49.600Z,60.80
2018-06-25T18:00:19.134Z,62.60
2018-06-25T18:02:48.117Z,61.90
2018-06-25T18:05:17.031Z,62.40
2018-06-25T18:07:45.917Z,63.70
2018-06-25T18:10:14.820Z,64.80
2018-06-25T18:12:43.799Z,64.30
2018-06-25T18:15:12.715Z,65.90
2018-06-25T18:20:11.140Z,67.30
2018-06-25T18:22:39.891Z,66.50
2018-06-25T18:25:08.615Z,67.90
2018-06-25T18:30:07.459Z,70.30
2018-06-25T18:32:36.299Z,68.40
2018-06-25T18:37:33.885Z,69.80
2018-06-25T18:42:31.398Z,71.40
2018-06-25T18:45:00.271Z,70.10
2018-06-25T18:47:29.063Z,69.60
2018-06-25T18:49:58.555Z,70.10
2018-06-25T18:54:55.946Z,70.60
2018-06-25T18:57:24.830Z,71.10
2018-06-25T18:59:53.630Z,70.80
2018-06-25T19:02:22.526Z,71.60
2018-06-25T19:04:51.395Z,72.70
2018-06-25T19:09:48.728Z,72.30
2018-06-25T19:12:17.693Z,74.20
2018-06-25T19:14:46.548Z,72.30
2018-06-25T19:17:15.519Z,72.90
2018-06-25T19:19:44.205Z,72.30
2018-06-25T19:22:13.940Z,72.10
2018-06-25T19:24:42.880Z,72.60
2018-06-25T19:27:12.103Z,71.90
2018-06-25T19:29:41.064Z,71.10
2018-06-25T19:32:09.946Z,74.10
2018-06-25T19:34:45.391Z,73.60
2018-06-25T19:37:33.052Z,74.80
2018-06-25T19:40:01.902Z,74.80
2018-06-25T19:42:32.315Z,75.00
2018-06-25T19:45:01.437Z,74.70
2018-06-25T19:49:58.825Z,75.10
2018-06-25T19:52:30.457Z,74.50
2018-06-25T19:55:01.747Z,75.20
2018-06-25T19:57:36.514Z,74.60
2018-06-25T20:00:10.251Z,75.10
2018-06-25T20:05:10.581Z,74.40
2018-06-25T20:07:42.999Z,73.50
2018-06-25T20:10:12.576Z,74.40
2018-06-25T20:12:42.837Z,76.00
2018-06-25T20:15:11.659Z,74.10
2018-06-25T20:17:40.909Z,74.00
2018-06-25T20:20:09.992Z,74.00
2018-06-25T20:22:40.150Z,73.90
2018-06-25T20:25:09.660Z,74.10
2018-06-25T20:27:38.464Z,73.70
2018-06-25T20:30:07.665Z,73.50
2018-06-25T20:32:36.662Z,74.10
2018-06-25T20:36:35.346Z,73.80
2018-06-25T20:39:08.480Z,73.70
2018-06-25T20:41:37.153Z,74.10
2018-06-25T20:44:07.875Z,74.00
2018-06-25T20:46:36.655Z,72.20
2018-06-25T20:49:05.600Z,73.60
2018-06-25T20:51:35.280Z,73.80
2018-06-25T20:54:04.194Z,73.50
2018-06-25T20:56:33.175Z,73.30
2018-06-25T20:59:02.216Z,73.10
2018-06-25T21:01:30.926Z,75.00
2018-06-25T21:04:00.637Z,73.20
2018-06-25T21:06:29.447Z,73.80
2018-06-25T21:08:58.342Z,73.70
2018-06-25T21:11:27.013Z,73.40
2018-06-25T21:13:55.829Z,73.60
2018-06-25T21:16:24.513Z,73.80
2018-06-25T21:18:53.336Z,75.40
2018-06-25T21:21:22.118Z,75.70
2018-06-25T21:23:51.034Z,75.80
2018-06-25T21:26:19.975Z,75.60
2018-06-25T21:28:48.694Z,75.50
2018-06-25T21:31:17.422Z,75.40
2018-06-25T21:33:46.286Z,75.30
2018-06-25T21:36:15.224Z,75.40
2018-06-25T21:38:44.014Z,75.80
2018-06-25T21:41:12.657Z,75.80
2018-06-25T21:43:41.364Z,76.20
2018-06-25T21:46:10.627Z,76.50
2018-06-25T21:48:39.331Z,77.00
2018-06-25T21:51:08.096Z,77.00
2018-06-25T21:53:36.955Z,77.00
2018-06-25T21:56:05.842Z,77.00
2018-06-25T21:58:34.837Z,77.00
2018-06-25T22:01:04.958Z,77.80
2018-06-25T22:03:33.690Z,78.20
2018-06-25T22:06:02.419Z,78.30
2018-06-25T22:08:31.119Z,78.40
2018-06-25T22:10:59.830Z,78.50
2018-06-25T22:13:28.686Z,78.30
2018-06-25T22:15:57.635Z,78.40
2018-06-25T22:18:26.399Z,78.80
2018-06-25T22:20:55.081Z,78.90
2018-06-25T22:23:23.894Z,78.80
2018-06-25T22:25:52.787Z,78.60
2018-06-25T22:28:21.652Z,77.70
2018-06-25T22:30:50.373Z,78.30
2018-06-25T22:33:19.017Z,78.30
2018-06-25T22:35:47.680Z,77.90
2018-06-25T22:38:16.514Z,77.00
2018-06-25T22:40:45.280Z,77.70
2018-06-25T22:43:13.967Z,78.10
2018-06-25T22:45:42.787Z,78.10
2018-06-25T22:48:11.607Z,78.50
2018-06-25T22:50:40.345Z,78.90
2018-06-25T22:53:09.091Z,79.20
2018-06-25T22:55:37.841Z,79.00
2018-06-25T22:58:06.616Z,80.20
2018-06-25T23:00:35.467Z,80.30
2018-06-25T23:03:04.270Z,79.90
2018-06-25T23:05:33.890Z,79.30
2018-06-25T23:08:02.604Z,78.90
2018-06-25T23:10:31.346Z,78.80
2018-06-25T23:13:00.079Z,78.80
2018-06-25T23:15:28.858Z,78.70
2018-06-25T23:17:57.609Z,78.60
2018-06-25T23:20:26.307Z,78.80
2018-06-25T23:22:56.926Z,79.10
2018-06-25T23:25:26.287Z,80.40
2018-06-25T23:27:55.068Z,81.10
2018-06-25T23:30:23.885Z,81.20
2018-06-25T23:32:52.673Z,82.20
2018-06-25T23:35:21.309Z,81.90
2018-06-25T23:37:50.233Z,81.90
2018-06-25T23:40:19.076Z,81.10
2018-06-25T23:42:47.870Z,79.90
2018-06-25T23:45:16.600Z,79.60
2018-06-25T23:47:45.349Z,76.70
2018-06-25T23:50:14.418Z,78.40
2018-06-25T23:52:43.112Z,78.50
2018-06-25T23:55:11.887Z,78.90
2018-06-25T23:57:40.527Z,79.40
